Time;durP1;ratioP1;P1;durP2;ratioP2;P2;SDS_P1;SDS_P2;PMS_P1;PMS_P2;Temp;Humidity;BMP_temperature;BMP_pressure;BME280_temperature;BME280_humidity;BME280_pressure;Samples;Min_cycle;Max_cycle;Signal;HPM_P1;HPM_P2
2023/01/14 00:01:33;;;;;;;;;;;8.20;81.50;;;;;;4975623;28;20017;-87
2023/01/14 00:03:59;;;;;;;;;;;8.10;81.20;;;;;;4993795;28;20384;-87
2023/01/14 00:06:26;;;;;;;;;;;8.10;81.40;;;;;;4975398;28;19952;-87
2023/01/14 00:08:53;;;;;;;;;;;8.10;81.30;;;;;;4978123;28;19922;-86
2023/01/14 00:11:19;;;;;;;;;;;8.20;81.30;;;;;;4991478;28;20004;-86
2023/01/14 00:14:04;;;;;;;;;;;8.20;80.90;;;;;;4990700;28;19924;-87
2023/01/14 00:16:29;;;;;;;;;;;8.20;80.90;;;;;;4975923;28;19910;-87
2023/01/14 00:18:56;;;;;;;;;;;8.20;80.90;;;;;;4991630;28;19921;-87
2023/01/14 00:21:21;;;;;;;;;;;8.20;81.10;;;;;;4998289;28;19952;-86
2023/01/14 00:23:47;;;;;;;;;;;8.20;80.90;;;;;;4985189;28;19922;-87
2023/01/14 00:26:14;;;;;;;;;;;8.10;80.90;;;;;;5005681;28;19961;-87
2023/01/14 00:28:39;;;;;;;;;;;8.10;80.90;;;;;;4991247;28;19914;-87
2023/01/14 00:31:24;;;;;;;;;;;8.10;81.10;;;;;;4976755;28;19937;-87
2023/01/14 00:33:50;;;;;;;;;;;8.10;81.30;;;;;;4973619;28;19929;-87
2023/01/14 00:36:19;;;;;;;;;;;8.10;81.10;;;;;;4976221;28;20332;-87
2023/01/14 00:38:51;;;;;;;;;;;8.10;81.00;;;;;;4967381;28;19917;-87
2023/01/14 00:41:17;;;;;;;;;;;8.00;81.30;;;;;;4974368;28;19922;-86
2023/01/14 00:43:47;;;;;;;;;;;8.00;81.40;;;;;;4984948;28;19956;-87
2023/01/14 00:46:39;;;;;;;;;;;8.00;81.50;;;;;;4968588;28;20009;-87
2023/01/14 00:49:12;;;;;;;;;;;8.00;81.30;;;;;;4988416;28;19918;-86
2023/01/14 00:52:04;;;;;;;;;;;8.00;81.20;;;;;;4991439;28;20279;-88
2023/01/14 00:54:29;;;;;;;;;;;8.00;81.50;;;;;;4968651;28;19922;-86
2023/01/14 00:57:03;;;;;;;;;;;8.00;81.30;;;;;;4957297;28;19921;-86
2023/01/14 00:59:39;;;;;;;;;;;8.00;81.10;;;;;;4976617;28;20399;-86
2023/01/14 01:02:06;;;;;;;;;;;7.90;81.20;;;;;;4961883;28;19914;-86
2023/01/14 01:04:40;;;;;;;;;;;8.00;81.20;;;;;;4973803;28;19932;-87
2023/01/14 01:07:05;;;;;;;;;;;8.00;81.30;;;;;;4967682;28;19934;-87
2023/01/14 01:09:46;;;;;;;;;;;8.00;81.00;;;;;;4959480;28;19918;-86
2023/01/14 01:12:11;;;;;;;;;;;8.00;81.10;;;;;;4951834;28;19925;-86
2023/01/14 01:14:37;;;;;;;;;;;8.00;81.10;;;;;;4969887;28;19920;-87
2023/01/14 01:17:08;;;;;;;;;;;8.00;81.30;;;;;;4972977;28;19997;-87
2023/01/14 01:19:34;;;;;;;;;;;8.00;81.20;;;;;;4971010;28;19925;-85
2023/01/14 01:21:59;;;;;;;;;;;8.00;81.20;;;;;;4973302;28;19922;-87
2023/01/14 01:24:30;;;;;;;;;;;8.00;81.30;;;;;;4975323;28;19969;-88
2023/01/14 01:27:11;;;;;;;;;;;8.00;81.30;;;;;;4960738;28;19914;-88
2023/01/14 01:29:36;;;;;;;;;;;8.00;81.30;;;;;;4965678;28;19921;-88
2023/01/14 01:32:17;;;;;;;;;;;8.00;81.40;;;;;;4965726;28;19933;-87
2023/01/14 01:34:43;;;;;;;;;;;8.00;81.50;;;;;;4957867;28;19918;-87
2023/01/14 01:37:08;;;;;;;;;;;8.00;81.80;;;;;;4961191;28;19940;-87
2023/01/14 01:39:41;;;;;;;;;;;8.00;81.60;;;;;;4976319;28;19914;-87
2023/01/14 01:42:24;;;;;;;;;;;8.00;81.50;;;;;;4969020;28;20349;-87
2023/01/14 01:44:49;;;;;;;;;;;8.00;81.70;;;;;;4966543;28;19960;-87
2023/01/14 01:47:21;;;;;;;;;;;8.00;81.90;;;;;;4975938;28;19922;-87
2023/01/14 01:49:46;;;;;;;;;;;7.90;82.00;;;;;;4972889;28;20360;-87
2023/01/14 01:52:18;;;;;;;;;;;7.90;82.20;;;;;;4972510;28;19936;-88
2023/01/14 01:55:14;;;;;;;;;;;7.90;82.10;;;;;;5005827;28;19981;-88
2023/01/14 01:57:40;;;;;;;;;;;7.90;82.10;;;;;;4980462;28;19926;-88
2023/01/14 02:00:07;;;;;;;;;;;7.90;81.70;;;;;;4980221;28;19924;-88
2023/01/14 02:02:33;;;;;;;;;;;7.90;82.20;;;;;;4953864;28;19924;-87
2023/01/14 02:05:08;;;;;;;;;;;7.90;82.20;;;;;;4977105;28;19914;-86
2023/01/14 02:07:58;;;;;;;;;;;7.90;82.00;;;;;;4985279;28;19920;-88
2023/01/14 02:10:47;;;;;;;;;;;7.90;81.70;;;;;;4980389;28;19922;-87
2023/01/14 02:13:20;;;;;;;;;;;7.90;81.80;;;;;;4955674;28;19972;-87
2023/01/14 02:15:58;;;;;;;;;;;8.00;81.90;;;;;;4985640;28;20324;-88
2023/01/14 02:18:23;;;;;;;;;;;7.90;81.90;;;;;;4989614;28;19924;-88
2023/01/14 02:21:01;;;;;;;;;;;8.00;81.80;;;;;;4968683;28;19922;-88
2023/01/14 02:23:42;;;;;;;;;;;7.90;81.80;;;;;;5006369;28;19913;-87
2023/01/14 02:26:39;;;;;;;;;;;7.90;82.10;;;;;;4990157;28;20433;-87
2023/01/14 02:29:32;;;;;;;;;;;7.90;82.00;;;;;;4997925;28;20016;-87
2023/01/14 02:32:06;;;;;;;;;;;7.90;82.00;;;;;;4985650;28;19949;-87
2023/01/14 02:34:46;;;;;;;;;;;7.80;82.30;;;;;;4973992;28;19921;-88
2023/01/14 02:37:16;;;;;;;;;;;7.80;82.30;;;;;;4971067;28;20402;-87
2023/01/14 02:39:54;;;;;;;;;;;7.80;82.50;;;;;;4975342;28;19914;-87
2023/01/14 02:45:45;;;;;;;;;;;7.70;82.40;;;;;;4991303;28;19929;-87
2023/01/14 02:48:25;;;;;;;;;;;7.70;82.50;;;;;;4971310;28;19922;-87
2023/01/14 02:50:50;;;;;;;;;;;7.60;82.70;;;;;;4972924;28;19972;-87
2023/01/14 02:53:20;;;;;;;;;;;7.60;83.00;;;;;;4999977;28;19918;-86
2023/01/14 02:55:48;;;;;;;;;;;7.50;83.10;;;;;;4976620;28;20020;-87
2023/01/14 02:58:29;;;;;;;;;;;7.50;83.30;;;;;;4970632;28;19921;-87
2023/01/14 03:01:00;;;;;;;;;;;7.50;83.20;;;;;;4992273;28;19914;-86
2023/01/14 03:03:38;;;;;;;;;;;7.40;83.40;;;;;;5013255;28;19920;-87
2023/01/14 03:09:27;;;;;;;;;;;7.40;83.50;;;;;;4991212;28;19934;-86
2023/01/14 03:11:59;;;;;;;;;;;7.30;83.50;;;;;;4992807;28;19918;-87
2023/01/14 03:14:40;;;;;;;;;;;7.40;83.70;;;;;;4974018;28;20368;-87
2023/01/14 03:17:26;;;;;;;;;;;7.40;83.50;;;;;;4970019;28;19914;-87
2023/01/14 03:19:58;;;;;;;;;;;7.40;83.40;;;;;;4967705;28;19914;-87
2023/01/14 03:22:25;;;;;;;;;;;7.40;83.50;;;;;;4969607;28;20306;-87
2023/01/14 03:24:53;;;;;;;;;;;7.30;83.80;;;;;;4968821;28;19936;-87
2023/01/14 03:27:23;;;;;;;;;;;7.30;83.70;;;;;;4989525;28;19956;-87
2023/01/14 03:29:54;;;;;;;;;;;7.40;83.70;;;;;;4980954;28;19998;-87
2023/01/14 03:32:22;;;;;;;;;;;7.40;83.30;;;;;;4990447;28;19917;-88
2023/01/14 03:34:50;;;;;;;;;;;7.30;83.60;;;;;;4969963;28;19945;-87
2023/01/14 03:37:17;;;;;;;;;;;7.40;83.50;;;;;;4973248;28;19944;-87
2023/01/14 03:39:44;;;;;;;;;;;7.40;83.20;;;;;;4971913;28;20093;-86
2023/01/14 03:42:19;;;;;;;;;;;7.50;83.20;;;;;;4980370;28;19981;-87
2023/01/14 03:44:45;;;;;;;;;;;7.50;83.10;;;;;;4970437;28;19914;-87
2023/01/14 03:47:10;;;;;;;;;;;7.60;83.10;;;;;;4981411;28;19968;-87
2023/01/14 03:49:36;;;;;;;;;;;7.60;82.50;;;;;;4990870;28;20021;-87
2023/01/14 03:52:09;;;;;;;;;;;7.60;82.60;;;;;;4972824;28;20273;-87
2023/01/14 03:54:34;;;;;;;;;;;7.60;82.30;;;;;;4984385;28;19905;-87
2023/01/14 03:57:10;;;;;;;;;;;7.60;82.50;;;;;;4972840;28;20433;-87
2023/01/14 03:59:53;;;;;;;;;;;7.50;82.60;;;;;;4997938;28;20402;-87
2023/01/14 04:02:19;;;;;;;;;;;7.50;82.60;;;;;;4988367;28;19928;-87
2023/01/14 04:04:45;;;;;;;;;;;7.40;82.90;;;;;;4975011;28;19962;-86
2023/01/14 04:07:11;;;;;;;;;;;7.40;82.80;;;;;;4976425;28;19917;-86
2023/01/14 04:09:36;;;;;;;;;;;7.30;83.10;;;;;;4968809;28;19918;-88
2023/01/14 04:12:02;;;;;;;;;;;7.30;83.30;;;;;;4973666;28;19920;-87
2023/01/14 04:17:11;;;;;;;;;;;7.30;83.30;;;;;;4994396;28;19976;-87
2023/01/14 04:19:37;;;;;;;;;;;7.40;83.10;;;;;;4968166;28;19921;-88
2023/01/14 04:22:02;;;;;;;;;;;7.40;83.40;;;;;;4981363;28;19914;-87
2023/01/14 04:24:28;;;;;;;;;;;7.30;83.30;;;;;;4982951;28;19914;-87
2023/01/14 04:26:53;;;;;;;;;;;7.30;83.10;;;;;;4978090;28;20016;-87
2023/01/14 04:29:19;;;;;;;;;;;7.30;83.40;;;;;;4975303;28;19929;-87
2023/01/14 04:31:44;;;;;;;;;;;7.40;83.10;;;;;;4971106;28;19914;-86
2023/01/14 04:34:10;;;;;;;;;;;7.30;83.10;;;;;;4976190;28;19925;-87
2023/01/14 04:36:35;;;;;;;;;;;7.30;83.30;;;;;;4978607;28;19913;-87
2023/01/14 04:39:00;;;;;;;;;;;7.30;83.30;;;;;;4993288;28;19968;-87
2023/01/14 04:44:10;;;;;;;;;;;7.30;83.50;;;;;;4992583;28;19944;-87
2023/01/14 04:46:36;;;;;;;;;;;7.30;83.20;;;;;;4978528;28;20363;-88
2023/01/14 04:49:01;;;;;;;;;;;7.30;83.50;;;;;;4994768;28;19976;-87
2023/01/14 04:51:26;;;;;;;;;;;7.30;83.40;;;;;;4971997;28;19918;-87
2023/01/14 04:53:52;;;;;;;;;;;7.20;83.20;;;;;;4981428;28;19924;-87
2023/01/14 04:56:17;;;;;;;;;;;7.30;83.20;;;;;;4993932;28;19968;-87
2023/01/14 04:58:43;;;;;;;;;;;7.40;83.10;;;;;;5003889;28;19913;-87
2023/01/14 05:01:08;;;;;;;;;;;7.30;83.10;;;;;;4980433;28;19929;-87
2023/01/14 05:03:34;;;;;;;;;;;7.20;83.10;;;;;;4975408;28;19913;-87
2023/01/14 05:05:59;;;;;;;;;;;7.30;83.00;;;;;;4973263;28;20012;-86
2023/01/14 05:08:25;;;;;;;;;;;7.30;83.40;;;;;;4992693;28;19921;-87
2023/01/14 05:10:50;;;;;;;;;;;7.20;83.20;;;;;;4977044;28;19918;-86
2023/01/14 05:13:16;;;;;;;;;;;7.30;83.00;;;;;;4985768;28;19924;-86
2023/01/14 05:15:42;;;;;;;;;;;7.10;83.10;;;;;;4985284;28;19914;-87
2023/01/14 05:18:09;;;;;;;;;;;7.10;83.30;;;;;;4996790;28;19920;-86
2023/01/14 05:20:34;;;;;;;;;;;7.10;83.20;;;;;;4981887;28;20008;-86
2023/01/14 05:23:01;;;;;;;;;;;7.10;83.30;;;;;;4976491;28;20014;-86
2023/01/14 05:25:27;;;;;;;;;;;7.20;83.10;;;;;;4974589;28;20387;-86
2023/01/14 05:27:53;;;;;;;;;;;7.10;83.10;;;;;;4994649;28;19914;-86
2023/01/14 05:30:18;;;;;;;;;;;7.20;82.90;;;;;;4990171;28;19930;-86
2023/01/14 05:32:43;;;;;;;;;;;7.20;83.00;;;;;;4976841;28;19914;-86
2023/01/14 05:35:09;;;;;;;;;;;7.10;82.70;;;;;;4995391;28;19918;-86
2023/01/14 05:37:34;;;;;;;;;;;7.20;82.90;;;;;;4988723;28;19956;-86
2023/01/14 05:40:00;;;;;;;;;;;7.20;82.60;;;;;;4984966;28;19925;-86
2023/01/14 05:47:54;;;;;;;;;;;7.20;82.20;;;;;;4997325;28;19920;-87
2023/01/14 05:50:20;;;;;;;;;;;7.20;81.80;;;;;;4990319;28;20020;-86
2023/01/14 05:52:45;;;;;;;;;;;7.20;81.60;;;;;;4982191;28;19925;-87
2023/01/14 05:55:11;;;;;;;;;;;7.20;81.70;;;;;;4985626;28;19972;-87
2023/01/14 05:57:36;;;;;;;;;;;7.30;81.10;;;;;;4972973;28;20107;-86
2023/01/14 06:00:02;;;;;;;;;;;7.30;80.90;;;;;;4975633;28;19916;-87
2023/01/14 06:07:56;;;;;;;;;;;7.30;80.70;;;;;;4993666;28;20020;-87
2023/01/14 06:10:25;;;;;;;;;;;7.30;79.90;;;;;;4968839;28;20008;-87
2023/01/14 06:13:03;;;;;;;;;;;7.30;79.90;;;;;;4972245;28;19918;-87
2023/01/14 06:15:33;;;;;;;;;;;7.30;79.80;;;;;;4974170;28;20368;-87
2023/01/14 06:18:09;;;;;;;;;;;7.40;79.50;;;;;;4978357;28;19937;-87
2023/01/14 06:20:36;;;;;;;;;;;7.30;79.40;;;;;;4972584;28;19949;-87
2023/01/14 06:23:02;;;;;;;;;;;7.30;79.60;;;;;;4968208;28;19969;-87
2023/01/14 06:25:28;;;;;;;;;;;7.30;79.80;;;;;;4974069;28;19921;-88
2023/01/14 06:27:55;;;;;;;;;;;7.30;80.00;;;;;;4999424;28;19902;-88
2023/01/14 06:30:20;;;;;;;;;;;7.20;79.80;;;;;;4994510;28;19925;-87
2023/01/14 06:32:46;;;;;;;;;;;7.30;79.80;;;;;;4996762;28;19917;-87
2023/01/14 06:35:11;;;;;;;;;;;7.30;79.30;;;;;;4975508;28;19920;-87
2023/01/14 06:37:37;;;;;;;;;;;7.30;79.20;;;;;;4988180;28;19991;-87
2023/01/14 06:40:02;;;;;;;;;;;7.40;78.90;;;;;;4974217;28;19921;-86
2023/01/14 06:42:40;;;;;;;;;;;7.40;78.90;;;;;;4987419;28;19914;-87
2023/01/14 06:45:10;;;;;;;;;;;7.40;79.20;;;;;;5042393;23;19925;-79
2023/01/14 06:47:36;;;;;;;;;;;7.30;79.20;;;;;;5023068;28;19914;-78
2023/01/14 06:50:01;;;;;;;;;;;7.30;79.30;;;;;;5029002;28;20462;-78
2023/01/14 06:52:27;;;;;;;;;;;7.20;79.40;;;;;;5032252;28;20016;-79
2023/01/14 06:54:53;;;;;;;;;;;7.30;79.10;;;;;;5038301;28;19913;-78
2023/01/14 06:57:19;;;;;;;;;;;7.30;79.20;;;;;;5028344;28;19936;-79
2023/01/14 06:59:45;;;;;;;;;;;7.10;79.60;;;;;;5036124;28;20384;-79
2023/01/14 07:02:11;;;;;;;;;;;7.30;79.60;;;;;;5023805;28;19916;-79
2023/01/14 07:04:36;;;;;;;;;;;7.30;79.00;;;;;;5033396;28;20024;-81
2023/01/14 07:07:02;;;;;;;;;;;7.40;79.00;;;;;;5031038;28;20000;-78
2023/01/14 07:09:27;;;;;;;;;;;7.50;78.70;;;;;;5028692;28;19917;-79
2023/01/14 07:11:53;;;;;;;;;;;7.40;79.00;;;;;;5027771;28;19917;-79
2023/01/14 07:14:18;;;;;;;;;;;7.40;79.00;;;;;;5037503;28;19909;-78
2023/01/14 07:16:44;;;;;;;;;;;7.60;78.50;;;;;;5040442;28;19936;-78
2023/01/14 07:19:11;;;;;;;;;;;7.40;78.70;;;;;;5045452;28;19920;-78
2023/01/14 07:21:37;;;;;;;;;;;7.50;78.80;;;;;;5044938;28;20181;-78
2023/01/14 07:24:02;;;;;;;;;;;7.60;79.00;;;;;;5038567;28;21011;-77
2023/01/14 07:26:28;;;;;;;;;;;7.60;78.20;;;;;;5033920;28;20418;-78
2023/01/14 07:28:54;;;;;;;;;;;7.60;78.20;;;;;;5028486;28;19920;-78
2023/01/14 07:31:20;;;;;;;;;;;7.60;78.30;;;;;;5030856;28;19921;-78
2023/01/14 07:33:45;;;;;;;;;;;7.70;78.30;;;;;;5033464;28;20698;-77
2023/01/14 07:36:11;;;;;;;;;;;7.60;78.80;;;;;;5029130;28;20365;-76
2023/01/14 07:38:36;;;;;;;;;;;7.60;78.80;;;;;;5031399;28;19978;-77
2023/01/14 07:41:01;;;;;;;;;;;7.60;79.50;;;;;;5047460;28;19943;-78
2023/01/14 07:43:28;;;;;;;;;;;7.60;80.10;;;;;;5043865;28;19926;-78
2023/01/14 07:45:58;;;;;;;;;;;7.50;80.70;;;;;;5035472;28;20022;-79
2023/01/14 07:48:23;;;;;;;;;;;7.60;81.50;;;;;;5028215;28;19956;-78
2023/01/14 07:50:49;;;;;;;;;;;7.60;82.40;;;;;;5024566;28;19922;-79
2023/01/14 07:53:14;;;;;;;;;;;7.40;82.20;;;;;;5031835;28;19971;-80
2023/01/14 07:55:40;;;;;;;;;;;7.50;82.40;;;;;;5032950;28;19913;-78
2023/01/14 07:58:05;;;;;;;;;;;7.50;82.50;;;;;;5023304;28;20330;-81
2023/01/14 08:00:31;;;;;;;;;;;7.50;82.80;;;;;;5032741;28;19917;-81
2023/01/14 08:02:57;;;;;;;;;;;7.50;83.10;;;;;;5035925;28;20020;-82
2023/01/14 08:05:22;;;;;;;;;;;7.40;83.10;;;;;;5029245;28;19913;-80
2023/01/14 08:07:48;;;;;;;;;;;7.30;83.80;;;;;;5038023;28;20008;-80
2023/01/14 08:10:13;;;;;;;;;;;7.30;84.10;;;;;;5032789;28;19960;-81
2023/01/14 08:12:39;;;;;;;;;;;7.30;84.40;;;;;;5034069;28;19928;-81
2023/01/14 08:15:06;;;;;;;;;;;7.30;84.30;;;;;;5022964;28;19921;-81
2023/01/14 08:17:31;;;;;;;;;;;7.20;84.70;;;;;;5025059;28;20585;-81
2023/01/14 08:20:00;;;;;;;;;;;7.20;85.00;;;;;;5027342;28;20120;-82
2023/01/14 08:22:27;;;;;;;;;;;7.30;85.20;;;;;;5039945;28;19913;-84
2023/01/14 08:24:52;;;;;;;;;;;7.20;85.60;;;;;;5032332;28;19921;-83
2023/01/14 08:27:18;;;;;;;;;;;7.10;86.00;;;;;;5032883;28;19992;-82
2023/01/14 08:29:44;;;;;;;;;;;7.10;86.30;;;;;;5028849;28;19925;-83
2023/01/14 08:32:10;;;;;;;;;;;7.10;86.30;;;;;;5067418;28;19909;-83
2023/01/14 08:34:35;;;;;;;;;;;7.10;86.70;;;;;;5035473;28;19959;-83
2023/01/14 08:37:01;;;;;;;;;;;7.10;87.00;;;;;;5042447;28;19917;-83
2023/01/14 08:39:26;;;;;;;;;;;6.90;86.60;;;;;;5041883;28;19934;-83
2023/01/14 08:41:52;;;;;;;;;;;7.10;86.60;;;;;;5035600;28;19913;-83
2023/01/14 08:44:17;;;;;;;;;;;7.00;86.90;;;;;;5027987;28;19917;-82
2023/01/14 08:46:43;;;;;;;;;;;7.10;87.00;;;;;;5031017;28;20007;-82
2023/01/14 08:49:09;;;;;;;;;;;7.10;87.10;;;;;;5015923;28;19921;-83
2023/01/14 08:51:35;;;;;;;;;;;7.00;86.90;;;;;;5024162;28;19916;-82
2023/01/14 08:54:01;;;;;;;;;;;7.00;86.90;;;;;;5026813;28;20300;-82
2023/01/14 08:56:27;;;;;;;;;;;7.00;87.00;;;;;;5028510;28;19957;-82
2023/01/14 08:58:52;;;;;;;;;;;7.10;87.30;;;;;;5025698;28;19909;-82
2023/01/14 09:01:18;;;;;;;;;;;7.10;87.40;;;;;;5031909;28;19921;-82
2023/01/14 09:03:45;;;;;;;;;;;7.20;86.80;;;;;;5028893;28;20037;-83
2023/01/14 09:06:12;;;;;;;;;;;7.10;87.00;;;;;;5033181;28;19913;-82
2023/01/14 09:19:28;;;;;;;;;;;7.30;87.50;;;;;;5031715;28;19977;-82
2023/01/14 09:21:54;;;;;;;;;;;7.30;86.80;;;;;;5021188;28;19921;-83
2023/01/14 09:24:19;;;;;;;;;;;7.30;86.70;;;;;;5035065;28;19909;-83
2023/01/14 09:26:45;;;;;;;;;;;7.30;87.10;;;;;;5037023;28;19913;-82
2023/01/14 09:29:11;;;;;;;;;;;7.40;86.60;;;;;;5027059;28;20292;-83
2023/01/14 09:31:36;;;;;;;;;;;7.50;86.50;;;;;;5024520;28;19921;-82
2023/01/14 09:34:02;;;;;;;;;;;7.40;86.50;;;;;;5027510;28;19924;-83
2023/01/14 09:36:29;;;;;;;;;;;7.40;86.30;;;;;;5030041;28;20387;-82
2023/01/14 09:39:04;;;;;;;;;;;7.50;86.40;;;;;;5039649;28;19916;-81
2023/01/14 09:41:56;;;;;;;;;;;7.50;85.90;;;;;;5038705;28;19916;-81
2023/01/14 09:44:22;;;;;;;;;;;7.60;85.70;;;;;;5025132;28;19992;-78
2023/01/14 09:46:50;;;;;;;;;;;7.60;85.70;;;;;;5028203;28;19917;-80
2023/01/14 09:49:18;;;;;;;;;;;7.60;85.30;;;;;;5036914;28;19933;-80
2023/01/14 09:52:02;;;;;;;;;;;7.70;85.10;;;;;;5028545;28;19913;-80
2023/01/14 09:54:40;;;;;;;;;;;7.70;85.10;;;;;;5028346;28;19913;-81
2023/01/14 09:57:07;;;;;;;;;;;7.70;84.80;;;;;;5028973;28;19925;-80
2023/01/14 09:59:39;;;;;;;;;;;7.80;84.80;;;;;;5036947;28;19936;-81
2023/01/14 10:02:10;;;;;;;;;;;7.80;85.00;;;;;;5024896;28;19913;-79
2023/01/14 10:04:42;;;;;;;;;;;7.80;84.90;;;;;;5023614;28;20020;-80
2023/01/14 10:07:10;;;;;;;;;;;7.90;84.90;;;;;;5039846;28;19921;-84
2023/01/14 10:09:48;;;;;;;;;;;8.00;84.50;;;;;;5024657;28;19953;-84
2023/01/14 10:12:16;;;;;;;;;;;7.90;84.40;;;;;;5029716;28;19947;-83
2023/01/14 10:15:00;;;;;;;;;;;8.00;84.70;;;;;;5031599;28;19916;-83
2023/01/14 10:17:28;;;;;;;;;;;8.00;84.60;;;;;;5038617;28;19917;-85
2023/01/14 10:19:54;;;;;;;;;;;8.10;84.00;;;;;;5045634;28;19925;-83
2023/01/14 10:22:40;;;;;;;;;;;8.10;83.90;;;;;;5033188;28;19959;-81
2023/01/14 10:25:29;;;;;;;;;;;8.10;84.00;;;;;;5027591;28;20630;-83
2023/01/14 10:27:56;;;;;;;;;;;8.20;83.80;;;;;;5019761;28;20458;-85
2023/01/14 10:30:23;;;;;;;;;;;8.30;83.50;;;;;;5034514;28;19916;-82
2023/01/14 10:32:50;;;;;;;;;;;8.30;83.80;;;;;;5025148;28;19913;-80
2023/01/14 10:35:18;;;;;;;;;;;8.20;83.80;;;;;;5031112;28;19975;-82
2023/01/14 10:37:43;;;;;;;;;;;8.20;84.40;;;;;;5029317;28;20359;-85
2023/01/14 10:40:28;;;;;;;;;;;8.20;84.50;;;;;;5024098;28;19985;-82
2023/01/14 10:42:55;;;;;;;;;;;8.20;85.10;;;;;;5013703;28;19917;-81
2023/01/14 10:45:21;;;;;;;;;;;8.20;85.30;;;;;;5019771;28;20022;-79
2023/01/14 10:47:47;;;;;;;;;;;8.20;86.10;;;;;;5018007;28;19925;-80
2023/01/14 10:50:26;;;;;;;;;;;8.10;86.80;;;;;;5012893;28;20616;-83
2023/01/14 10:52:53;;;;;;;;;;;8.20;86.80;;;;;;5030834;28;20443;-83
2023/01/14 10:55:21;;;;;;;;;;;8.10;86.80;;;;;;5033219;28;20308;-84
2023/01/14 10:57:49;;;;;;;;;;;8.00;87.00;;;;;;5024333;28;20083;-83
2023/01/14 11:00:35;;;;;;;;;;;8.00;87.60;;;;;;5026926;28;19916;-85
2023/01/14 11:03:02;;;;;;;;;;;8.00;87.80;;;;;;5021527;28;19921;-86
2023/01/14 11:05:35;;;;;;;;;;;8.00;88.20;;;;;;5036399;28;19917;-84
2023/01/14 11:08:16;;;;;;;;;;;7.90;88.60;;;;;;5020781;28;20019;-84
2023/01/14 11:10:41;;;;;;;;;;;7.90;88.70;;;;;;5025430;28;19917;-85
2023/01/14 11:13:14;;;;;;;;;;;7.80;88.70;;;;;;5016389;28;19929;-85
2023/01/14 11:15:41;;;;;;;;;;;7.90;88.80;;;;;;5025972;28;19921;-87
2023/01/14 11:18:18;;;;;;;;;;;7.90;89.10;;;;;;5023400;28;20027;-86
2023/01/14 11:21:03;;;;;;;;;;;7.90;89.10;;;;;;5036806;28;20010;-84
2023/01/14 11:23:33;;;;;;;;;;;7.90;89.30;;;;;;5033338;28;19998;-85
2023/01/14 11:26:20;;;;;;;;;;;7.90;89.40;;;;;;5018822;28;20005;-83
2023/01/14 11:28:46;;;;;;;;;;;7.80;89.50;;;;;;5017598;28;19924;-83
2023/01/14 11:31:12;;;;;;;;;;;7.80;89.70;;;;;;5023773;28;19917;-85
2023/01/14 11:33:40;;;;;;;;;;;7.80;90.10;;;;;;5018824;28;19920;-83
2023/01/14 11:36:10;;;;;;;;;;;7.90;90.10;;;;;;5014728;28;20369;-83
2023/01/14 11:38:43;;;;;;;;;;;7.90;89.90;;;;;;5020421;28;20365;-83
2023/01/14 11:41:30;;;;;;;;;;;7.90;89.90;;;;;;5037153;28;20000;-82
2023/01/14 11:44:00;;;;;;;;;;;7.90;89.80;;;;;;5018408;28;19920;-83
2023/01/14 11:46:26;;;;;;;;;;;7.90;90.10;;;;;;5023046;28;20360;-83
2023/01/14 11:48:59;;;;;;;;;;;7.90;90.30;;;;;;5019892;28;19921;-83
2023/01/14 11:51:27;;;;;;;;;;;8.00;90.00;;;;;;5014680;28;20372;-82
2023/01/14 11:53:53;;;;;;;;;;;7.90;90.10;;;;;;5021778;28;19975;-83
2023/01/14 11:56:19;;;;;;;;;;;7.90;90.30;;;;;;5017526;28;19966;-83
2023/01/14 11:58:44;;;;;;;;;;;8.00;90.50;;;;;;5021111;28;20343;-82
2023/01/14 12:01:15;;;;;;;;;;;8.00;90.80;;;;;;5025081;28;19914;-83
2023/01/14 12:03:47;;;;;;;;;;;8.00;90.70;;;;;;5014239;28;20404;-82
2023/01/14 12:06:14;;;;;;;;;;;7.90;90.70;;;;;;5020388;28;19913;-85
2023/01/14 12:08:41;;;;;;;;;;;8.00;90.70;;;;;;5019574;28;20341;-81
2023/01/14 12:11:12;;;;;;;;;;;8.10;90.70;;;;;;5021958;28;19917;-84
2023/01/14 12:19:13;;;;;;;;;;;8.10;90.50;;;;;;5028770;28;20332;-85
2023/01/14 12:21:41;;;;;;;;;;;8.20;90.50;;;;;;5033391;28;19913;-84
2023/01/14 12:24:18;;;;;;;;;;;8.20;90.40;;;;;;5032472;28;20203;-85
2023/01/14 12:26:44;;;;;;;;;;;8.20;90.80;;;;;;5048040;28;19917;-84
2023/01/14 12:29:13;;;;;;;;;;;8.40;90.60;;;;;;5037938;28;19914;-84
2023/01/14 12:31:47;;;;;;;;;;;8.30;90.30;;;;;;5037762;28;19920;-85
2023/01/14 12:34:32;;;;;;;;;;;8.40;90.40;;;;;;5047332;28;19912;-84
2023/01/14 12:37:07;;;;;;;;;;;8.30;90.40;;;;;;5041637;28;20095;-84
2023/01/14 12:47:53;;;;;;;;;;;8.50;90.30;;;;;;5022305;28;19956;-85
2023/01/14 12:50:19;;;;;;;;;;;8.60;90.60;;;;;;5015031;28;19925;-85
2023/01/14 12:52:49;;;;;;;;;;;8.50;90.30;;;;;;5018042;28;19929;-84
2023/01/14 12:55:19;;;;;;;;;;;8.60;90.40;;;;;;5009047;28;19917;-84
2023/01/14 12:57:48;;;;;;;;;;;8.60;90.30;;;;;;5000447;28;19926;-87
2023/01/14 13:00:18;;;;;;;;;;;8.70;90.30;;;;;;5004851;28;20358;-84
2023/01/14 13:02:45;;;;;;;;;;;8.60;90.20;;;;;;4995094;28;19964;-85
2023/01/14 13:05:14;;;;;;;;;;;8.70;90.40;;;;;;4998149;28;19921;-85
2023/01/14 13:07:48;;;;;;;;;;;8.70;90.10;;;;;;4999860;28;19917;-85
2023/01/14 13:10:22;;;;;;;;;;;8.70;90.30;;;;;;4985176;28;19921;-85
2023/01/14 13:12:48;;;;;;;;;;;8.80;90.10;;;;;;5018666;28;19913;-86
2023/01/14 13:15:17;;;;;;;;;;;8.70;90.10;;;;;;4980671;28;19968;-85
2023/01/14 13:17:44;;;;;;;;;;;8.80;90.30;;;;;;5002992;28;19924;-84
2023/01/14 13:20:36;;;;;;;;;;;8.80;90.40;;;;;;4993301;28;19922;-84
2023/01/14 13:23:02;;;;;;;;;;;8.80;90.20;;;;;;4985438;28;19960;-84
2023/01/14 13:25:54;;;;;;;;;;;8.80;90.20;;;;;;4986364;28;19969;-80
2023/01/14 13:28:20;;;;;;;;;;;8.70;90.50;;;;;;4986638;28;19913;-83
2023/01/14 13:30:45;;;;;;;;;;;8.80;90.50;;;;;;4995200;28;19929;-83
2023/01/14 13:33:23;;;;;;;;;;;8.80;90.40;;;;;;4984616;28;19917;-85
2023/01/14 13:36:10;;;;;;;;;;;8.80;90.20;;;;;;5004252;28;19921;-88
2023/01/14 13:38:39;;;;;;;;;;;8.90;90.50;;;;;;5002210;28;19949;-87
2023/01/14 13:41:09;;;;;;;;;;;8.80;90.60;;;;;;5004629;28;19913;-87
2023/01/14 13:43:39;;;;;;;;;;;8.80;90.40;;;;;;4999700;28;19917;-87
2023/01/14 13:46:14;;;;;;;;;;;8.80;90.60;;;;;;4985951;28;20034;-89
2023/01/14 13:48:48;;;;;;;;;;;8.80;90.70;;;;;;4989719;28;20016;-87
2023/01/14 13:51:18;;;;;;;;;;;8.80;90.60;;;;;;5021448;28;19920;-87
2023/01/14 13:54:05;;;;;;;;;;;8.80;90.80;;;;;;4992090;28;19999;-86
2023/01/14 13:56:32;;;;;;;;;;;8.80;91.00;;;;;;4991584;28;19922;-86
2023/01/14 13:58:59;;;;;;;;;;;8.70;91.00;;;;;;4992328;28;20016;-86
2023/01/14 14:01:38;;;;;;;;;;;8.70;91.10;;;;;;4992492;28;20014;-88
2023/01/14 14:04:09;;;;;;;;;;;8.80;91.00;;;;;;4990090;28;21982;-88
2023/01/14 14:06:35;;;;;;;;;;;8.80;91.20;;;;;;4989464;28;19956;-87
2023/01/14 14:09:07;;;;;;;;;;;8.70;91.30;;;;;;4993576;28;19913;-87
2023/01/14 14:11:45;;;;;;;;;;;8.80;91.40;;;;;;4989736;28;19917;-88
2023/01/14 14:14:15;;;;;;;;;;;8.70;91.40;;;;;;4992947;28;20000;-86
2023/01/14 14:16:47;;;;;;;;;;;8.80;91.40;;;;;;5007613;28;19921;-88
2023/01/14 14:19:15;;;;;;;;;;;8.70;91.30;;;;;;5025079;28;19941;-86
2023/01/14 14:21:53;;;;;;;;;;;8.80;91.50;;;;;;4989123;28;19936;-88
2023/01/14 14:24:22;;;;;;;;;;;8.80;91.30;;;;;;4993176;28;19914;-88
2023/01/14 14:26:49;;;;;;;;;;;8.90;91.30;;;;;;4990519;28;19913;-86
2023/01/14 14:29:16;;;;;;;;;;;8.90;91.50;;;;;;4990605;28;20298;-85
2023/01/14 14:31:43;;;;;;;;;;;8.90;91.40;;;;;;4987737;28;19921;-86
2023/01/14 14:34:16;;;;;;;;;;;9.00;91.20;;;;;;4987258;28;19924;-87
2023/01/14 14:36:44;;;;;;;;;;;8.90;91.20;;;;;;4984686;28;20614;-87
2023/01/14 14:39:22;;;;;;;;;;;9.00;91.40;;;;;;5008876;28;20391;-85
2023/01/14 14:41:47;;;;;;;;;;;9.00;91.20;;;;;;4986288;28;19914;-84
2023/01/14 14:44:18;;;;;;;;;;;9.00;91.20;;;;;;5008710;28;19913;-87
2023/01/14 14:46:43;;;;;;;;;;;9.00;91.50;;;;;;5015329;28;19925;-85
2023/01/14 14:49:19;;;;;;;;;;;9.10;91.30;;;;;;5041035;28;19984;-83
2023/01/14 14:51:46;;;;;;;;;;;9.00;91.10;;;;;;5003908;28;19913;-85
2023/01/14 14:54:26;;;;;;;;;;;9.10;91.50;;;;;;4989727;28;19921;-86
2023/01/14 15:00:06;;;;;;;;;;;9.00;91.60;;;;;;4940957;28;20341;-90
2023/01/14 15:03:16;;;;;;;;;;;9.00;91.70;;;;;;4993595;28;20355;-88
2023/01/14 15:05:56;;;;;;;;;;;9.10;91.50;;;;;;5027526;28;19916;-92
2023/01/14 15:08:28;;;;;;;;;;;9.10;91.50;;;;;;5029277;23;19931;-79
2023/01/14 15:10:53;;;;;;;;;;;9.10;91.70;;;;;;5049070;28;19932;-80
2023/01/14 15:13:22;;;;;;;;;;;9.00;91.60;;;;;;5052269;28;20076;-78
2023/01/14 15:16:00;;;;;;;;;;;9.10;91.80;;;;;;5060503;28;19913;-78
2023/01/14 15:18:25;;;;;;;;;;;9.10;92.00;;;;;;5062995;28;19917;-78
2023/01/14 15:20:51;;;;;;;;;;;9.10;92.00;;;;;;5054607;28;19947;-79
2023/01/14 15:23:17;;;;;;;;;;;9.00;92.20;;;;;;5033843;28;19921;-77
2023/01/14 15:25:43;;;;;;;;;;;9.10;92.10;;;;;;5074866;28;19925;-80
2023/01/14 15:28:13;;;;;;;;;;;9.10;92.10;;;;;;5072500;28;20132;-79
2023/01/14 15:30:38;;;;;;;;;;;9.00;92.30;;;;;;5071440;28;20376;-79
2023/01/14 15:33:23;;;;;;;;;;;9.00;92.50;;;;;;5058074;28;19959;-78
2023/01/14 15:35:56;;;;;;;;;;;9.00;92.60;;;;;;5041856;28;19963;-78
2023/01/14 15:38:22;;;;;;;;;;;9.10;92.70;;;;;;5061762;28;20253;-78